createdAt,value
2022-08-23T14:34:29.656Z,27.41
2022-08-23T14:36:32.471Z,27.68
2022-08-23T14:38:35.890Z,27.91
2022-08-23T14:40:38.731Z,28.01
2022-08-23T14:42:41.685Z,28.11
2022-08-23T14:44:44.614Z,28.24
2022-08-23T14:46:47.925Z,28.32
2022-08-23T14:48:50.900Z,28.34
2022-08-23T14:50:55.608Z,28.34
2022-08-23T14:52:58.649Z,28.41
2022-08-23T14:55:01.478Z,28.53
2022-08-23T14:57:04.418Z,28.60
2022-08-23T14:59:07.386Z,28.67
2022-08-23T15:01:10.778Z,28.69
2022-08-23T15:03:20.119Z,28.69
2022-08-23T15:05:22.950Z,28.71
2022-08-23T15:07:27.217Z,28.74
2022-08-23T15:09:30.100Z,28.79
2022-08-23T15:13:56.790Z,28.78
2022-08-23T15:16:04.469Z,28.80
2022-08-23T15:18:10.074Z,28.83
2022-08-23T15:20:13.004Z,28.86
2022-08-23T15:22:21.392Z,28.86
2022-08-23T15:24:26.706Z,28.89
2022-08-23T15:26:32.199Z,28.85
2022-08-23T15:28:35.852Z,28.86
2022-08-23T15:30:39.056Z,28.90
2022-08-23T15:32:52.706Z,28.90
2022-08-23T15:34:59.605Z,28.90
2022-08-23T15:37:02.606Z,28.95
2022-08-23T15:39:05.420Z,28.94
2022-08-23T15:41:09.722Z,28.98
2022-08-23T15:43:13.664Z,29.01
2022-08-23T15:45:16.544Z,28.99
2022-08-23T15:47:23.046Z,28.97
2022-08-23T15:49:32.866Z,28.96
2022-08-23T15:51:38.430Z,28.99
2022-08-23T15:53:41.558Z,29.01
2022-08-23T15:55:45.545Z,29.03
2022-08-23T15:57:53.254Z,29.05
2022-08-23T15:59:56.459Z,29.03
2022-08-23T16:01:59.496Z,29.01
2022-08-23T16:04:02.779Z,29.02
2022-08-23T16:06:06.871Z,29.03
2022-08-23T16:08:13.594Z,29.03
2022-08-23T16:10:16.953Z,29.03
2022-08-23T16:12:19.949Z,29.02
2022-08-23T16:14:24.151Z,29.01
2022-08-23T16:16:29.628Z,29.03
2022-08-23T16:18:32.500Z,29.04
2022-08-23T16:20:35.562Z,29.01
2022-08-23T16:22:38.749Z,28.99
2022-08-23T16:24:41.633Z,29.01
2022-08-23T16:26:46.145Z,29.02
2022-08-23T16:28:51.799Z,29.02
2022-08-23T16:30:56.210Z,29.04
2022-08-23T16:32:59.206Z,29.02
2022-08-23T16:35:02.080Z,28.99
2022-08-23T16:37:09.751Z,28.98
2022-08-23T16:39:13.898Z,28.95
2022-08-23T16:41:17.190Z,28.99
2022-08-23T16:43:20.033Z,29.03
2022-08-23T16:45:25.962Z,29.06
2022-08-23T16:47:31.436Z,29.06
2022-08-23T16:49:34.841Z,29.06
2022-08-23T16:51:38.121Z,29.03
2022-08-23T16:53:41.116Z,29.00
2022-08-23T16:55:44.262Z,29.00
2022-08-23T16:57:47.232Z,29.02
2022-08-23T16:59:51.220Z,28.99
2022-08-23T17:01:57.228Z,28.96
2022-08-23T17:04:01.742Z,28.95
2022-08-23T17:06:04.805Z,28.95
2022-08-23T17:08:07.907Z,28.96
2022-08-23T17:10:13.358Z,28.93
2022-08-23T17:12:17.738Z,28.91
2022-08-23T17:14:20.928Z,28.88
2022-08-23T17:16:24.322Z,28.87
2022-08-23T17:18:27.556Z,28.84
2022-08-23T17:20:34.515Z,28.83
2022-08-23T17:22:37.466Z,28.78
2022-08-23T17:24:40.684Z,28.73
2022-08-23T17:26:44.064Z,28.69
2022-08-23T17:28:46.978Z,28.65
2022-08-23T17:30:49.928Z,28.63
2022-08-23T17:32:53.959Z,28.62
2022-08-23T17:34:56.796Z,28.60
2022-08-23T17:37:01.517Z,28.58
2022-08-23T17:39:07.730Z,28.55
2022-08-23T17:41:10.637Z,28.52
2022-08-23T17:43:13.851Z,28.51
2022-08-23T17:45:16.885Z,28.49
2022-08-23T17:47:19.862Z,28.48
2022-08-23T17:49:22.619Z,28.46
2022-08-23T17:51:25.681Z,28.42
2022-08-23T17:53:29.994Z,28.40
2022-08-23T17:55:35.930Z,28.36
2022-08-23T17:57:40.788Z,28.35
2022-08-23T17:59:43.585Z,28.33
2022-08-23T18:01:46.363Z,28.31
2022-08-23T18:03:49.653Z,28.29
2022-08-23T18:05:53.145Z,28.24
2022-08-23T18:07:56.048Z,28.25
2022-08-23T18:10:00.415Z,28.23
2022-08-23T18:12:03.444Z,28.21
2022-08-23T18:14:06.964Z,28.17
2022-08-23T18:16:09.952Z,28.15
2022-08-23T18:18:13.066Z,28.13
2022-08-23T18:20:16.098Z,28.12
2022-08-23T18:22:20.218Z,28.09
2022-08-23T18:24:24.660Z,28.09
2022-08-23T18:26:46.729Z,28.05
2022-08-23T18:28:50.073Z,28.03
2022-08-23T18:30:54.549Z,28.01
2022-08-23T18:32:58.365Z,27.98
2022-08-23T18:35:01.193Z,27.96
2022-08-23T18:37:05.185Z,27.94
2022-08-23T18:39:09.093Z,27.93
2022-08-23T18:41:13.650Z,27.90
2022-08-23T18:43:20.537Z,27.88
2022-08-23T18:45:24.015Z,27.86
2022-08-23T18:47:27.208Z,27.84
2022-08-23T18:49:30.591Z,27.83
2022-08-23T18:51:33.530Z,27.81
2022-08-23T18:53:37.269Z,27.80
2022-08-23T18:55:40.246Z,27.78
2022-08-23T18:57:43.200Z,27.76
2022-08-23T18:59:47.436Z,27.73
2022-08-23T19:01:51.592Z,27.73
2022-08-23T19:03:55.291Z,27.71
2022-08-23T19:05:58.446Z,27.70
2022-08-23T19:08:01.401Z,27.70
2022-08-23T19:10:05.274Z,27.66
2022-08-23T19:12:09.245Z,27.66
2022-08-23T19:14:12.680Z,27.65
2022-08-23T19:16:17.154Z,27.64
2022-08-23T19:18:20.149Z,27.63
2022-08-23T19:20:23.138Z,27.61
2022-08-23T19:22:25.954Z,27.59
2022-08-23T19:24:29.860Z,27.58
2022-08-23T19:26:36.109Z,27.57
2022-08-23T19:28:39.974Z,27.54
2022-08-23T19:30:43.755Z,27.53
2022-08-23T19:32:47.937Z,27.53
2022-08-23T19:34:50.726Z,27.50
2022-08-23T19:37:00.627Z,27.49
2022-08-23T19:39:06.149Z,27.51
2022-08-23T19:41:09.427Z,27.48
2022-08-23T19:43:12.662Z,27.48
2022-08-23T19:45:16.518Z,27.47
2022-08-23T19:47:21.200Z,27.46
2022-08-23T19:49:27.280Z,27.46
2022-08-23T19:51:30.283Z,27.45
2022-08-23T19:53:33.365Z,27.45
2022-08-23T19:55:41.794Z,27.42
2022-08-23T19:57:44.847Z,27.41
2022-08-23T19:59:47.680Z,27.39
2022-08-23T20:01:50.949Z,27.37
2022-08-23T20:03:53.834Z,27.36
2022-08-23T20:05:58.065Z,27.35
2022-08-23T20:08:01.278Z,27.34
2022-08-23T20:10:05.821Z,27.33
2022-08-23T20:12:09.210Z,27.30
2022-08-23T20:14:12.309Z,27.30
2022-08-23T20:16:15.277Z,27.30
2022-08-23T20:18:18.137Z,27.27
2022-08-23T20:20:21.449Z,27.27
2022-08-23T20:22:42.804Z,27.25
2022-08-23T20:24:52.484Z,27.26
2022-08-23T20:26:56.337Z,27.24
2022-08-23T20:29:00.429Z,27.23
2022-08-23T20:31:07.782Z,27.21
2022-08-23T20:33:10.759Z,27.17
2022-08-23T20:35:14.095Z,27.17
2022-08-23T20:37:17.073Z,27.16
2022-08-23T20:39:23.929Z,27.15
2022-08-23T20:41:27.904Z,27.15
2022-08-23T20:43:32.478Z,27.16
2022-08-23T20:45:35.931Z,27.16
2022-08-23T20:47:40.254Z,27.14
2022-08-23T20:49:45.661Z,27.13
2022-08-23T20:54:06.078Z,27.07
2022-08-23T20:56:10.381Z,27.04
2022-08-23T20:58:13.200Z,27.01
2022-08-23T21:00:16.953Z,26.94
2022-08-23T21:02:19.829Z,26.86
2022-08-23T21:04:22.616Z,26.77
2022-08-23T21:06:38.696Z,26.72
2022-08-23T21:08:43.365Z,26.69
2022-08-23T21:10:46.458Z,26.64
2022-08-23T21:12:50.772Z,26.61
2022-08-23T21:14:53.994Z,26.56
2022-08-23T21:16:56.888Z,26.56
2022-08-23T21:18:59.847Z,26.52
2022-08-23T21:21:02.667Z,26.50
2022-08-23T21:23:05.564Z,26.49
2022-08-23T21:25:09.378Z,26.48
2022-08-23T21:27:12.206Z,26.46
2022-08-23T21:29:16.394Z,26.46
2022-08-23T21:31:24.344Z,26.44
2022-08-23T21:33:27.314Z,26.43
2022-08-23T21:35:30.938Z,26.27
2022-08-23T21:37:35.278Z,26.22
2022-08-23T21:39:38.398Z,26.24
2022-08-23T21:41:44.863Z,26.23
2022-08-23T21:43:47.703Z,26.19
2022-08-23T21:45:52.615Z,26.03
2022-08-23T21:47:56.169Z,26.00
2022-08-23T21:49:59.055Z,26.01
2022-08-23T21:52:01.983Z,26.02
2022-08-23T21:54:05.450Z,26.01
2022-08-23T21:56:08.656Z,26.03
2022-08-23T21:58:12.433Z,26.02
2022-08-23T22:00:17.109Z,26.04
2022-08-23T22:02:21.555Z,26.05
2022-08-23T22:04:24.377Z,26.06
2022-08-23T22:06:27.405Z,26.08
2022-08-23T22:08:30.370Z,26.07
2022-08-23T22:10:33.345Z,26.07
2022-08-23T22:12:36.444Z,26.04
2022-08-23T22:14:39.628Z,26.03
2022-08-23T22:16:44.253Z,26.02
2022-08-23T22:18:48.521Z,26.02
2022-08-23T22:20:51.394Z,26.02
2022-08-23T22:22:54.332Z,26.01
2022-08-23T22:24:57.666Z,26.02
2022-08-23T22:27:00.629Z,26.01
2022-08-23T22:29:03.643Z,25.98
2022-08-23T22:31:08.596Z,25.98
2022-08-23T22:33:13.064Z,26.01
2022-08-23T22:35:18.488Z,26.00
2022-08-23T22:37:21.632Z,26.01
2022-08-23T22:39:24.785Z,25.97
2022-08-23T22:41:30.204Z,25.88
2022-08-23T22:43:33.229Z,25.89
2022-08-23T22:45:36.300Z,25.91
2022-08-23T22:47:39.206Z,25.92
2022-08-23T22:49:42.654Z,25.92
2022-08-23T22:51:46.877Z,25.94
2022-08-23T22:54:00.098Z,25.95
2022-08-23T22:56:03.707Z,25.94
2022-08-23T22:58:06.578Z,25.95
2022-08-23T23:00:11.339Z,25.95
2022-08-23T23:02:14.653Z,25.93
2022-08-23T23:04:21.650Z,25.93
2022-08-23T23:06:24.784Z,25.91
2022-08-23T23:08:28.116Z,25.90
2022-08-23T23:10:31.142Z,25.89
2022-08-23T23:12:33.947Z,25.90
2022-08-23T23:14:36.828Z,25.92
2022-08-23T23:16:40.387Z,25.91
2022-08-23T23:19:05.187Z,25.90
2022-08-23T23:21:08.304Z,25.89
2022-08-23T23:23:14.782Z,25.89
2022-08-23T23:25:19.298Z,25.88
2022-08-23T23:27:22.370Z,25.86
2022-08-23T23:29:27.099Z,25.86
2022-08-23T23:31:30.174Z,25.85
2022-08-23T23:33:34.221Z,25.85
2022-08-23T23:35:37.644Z,25.86
2022-08-23T23:37:40.473Z,25.86
2022-08-23T23:39:43.313Z,25.84
2022-08-23T23:41:47.515Z,25.82
2022-08-23T23:43:50.502Z,25.80
2022-08-23T23:45:53.319Z,25.78
2022-08-23T23:47:56.825Z,25.77
2022-08-23T23:49:59.914Z,25.73
2022-08-23T23:52:04.814Z,25.74
2022-08-23T23:54:07.869Z,25.72
2022-08-23T23:56:13.488Z,25.70
2022-08-23T23:58:17.659Z,25.66
